createdAt,value
2022-12-28T00:01:31.880Z,5.10
2022-12-28T00:04:17.561Z,5.20
2022-12-28T00:07:02.939Z,4.88
2022-12-28T00:09:48.341Z,4.88
2022-12-28T00:12:33.688Z,6.18
2022-12-28T00:15:18.983Z,5.43
2022-12-28T00:18:04.425Z,6.88
2022-12-28T00:20:57.830Z,6.82
2022-12-28T00:23:43.204Z,6.97
2022-12-28T00:26:31.208Z,6.25
2022-12-28T00:29:17.482Z,5.57
2022-12-28T00:32:03.027Z,5.68
2022-12-28T00:34:48.160Z,6.43
2022-12-28T00:37:33.592Z,4.53
2022-12-28T00:40:23.824Z,6.57
2022-12-28T00:43:09.880Z,8.00
2022-12-28T00:45:55.310Z,6.70
2022-12-28T00:48:40.670Z,7.18
2022-12-28T00:51:26.416Z,6.53
2022-12-28T00:54:12.188Z,6.22
2022-12-28T00:56:57.645Z,5.65
2022-12-28T00:59:43.160Z,6.03
2022-12-28T01:02:28.450Z,7.03
2022-12-28T01:05:13.796Z,5.50
2022-12-28T01:08:00.305Z,6.75
2022-12-28T01:10:45.839Z,6.72
2022-12-28T01:13:31.477Z,5.75
2022-12-28T01:16:22.901Z,5.95
2022-12-28T01:19:09.202Z,4.78
2022-12-28T01:21:54.794Z,4.50
2022-12-28T01:24:40.275Z,4.80
2022-12-28T01:27:25.960Z,4.90
2022-12-28T01:30:14.614Z,5.32
2022-12-28T01:33:00.266Z,5.97
2022-12-28T01:35:45.715Z,5.10
2022-12-28T01:38:31.110Z,5.82
2022-12-28T01:41:18.878Z,6.05
2022-12-28T01:44:04.453Z,4.55
2022-12-28T01:46:54.986Z,4.95
2022-12-28T01:49:43.588Z,5.40
2022-12-28T01:52:38.404Z,4.20
2022-12-28T01:55:44.024Z,5.00
2022-12-28T01:58:32.773Z,4.85
2022-12-28T02:01:18.757Z,3.60
2022-12-28T02:04:04.770Z,4.30
2022-12-28T02:06:50.758Z,4.57
2022-12-28T02:09:40.308Z,4.88
2022-12-28T02:12:26.069Z,4.68
2022-12-28T02:15:12.167Z,4.53
2022-12-28T02:17:59.005Z,4.63
2022-12-28T02:20:44.685Z,5.07
2022-12-28T02:23:38.866Z,5.30
2022-12-28T02:26:33.488Z,5.15
2022-12-28T02:29:37.816Z,5.00
2022-12-28T02:32:38.725Z,4.60
2022-12-28T02:35:51.639Z,6.27
2022-12-28T02:38:39.713Z,4.72
2022-12-28T02:41:26.256Z,5.78
2022-12-28T02:44:12.669Z,5.28
2022-12-28T02:47:17.158Z,5.25
2022-12-28T02:50:06.744Z,5.68
2022-12-28T02:53:20.793Z,4.75
2022-12-28T02:56:14.174Z,4.15
2022-12-28T02:59:22.499Z,4.10
2022-12-28T03:02:29.855Z,4.82
2022-12-28T03:05:52.995Z,4.35
2022-12-28T03:08:48.950Z,4.28
2022-12-28T03:11:51.162Z,4.22
2022-12-28T03:14:49.099Z,4.30
2022-12-28T03:17:56.872Z,4.38
2022-12-28T03:21:04.571Z,4.25
2022-12-28T03:24:11.281Z,3.28
2022-12-28T03:27:20.784Z,3.67
2022-12-28T03:30:37.496Z,4.30
2022-12-28T03:33:24.406Z,3.83
2022-12-28T03:36:23.163Z,3.80
2022-12-28T03:39:29.115Z,4.00
2022-12-28T03:42:56.623Z,3.90
2022-12-28T03:45:56.440Z,3.97
2022-12-28T03:48:44.138Z,3.92
2022-12-28T03:51:32.626Z,4.05
2022-12-28T03:54:23.887Z,4.20
2022-12-28T03:57:10.273Z,3.95
2022-12-28T04:00:00.607Z,4.00
2022-12-28T04:02:47.050Z,4.38
2022-12-28T04:05:32.847Z,4.40
2022-12-28T04:08:18.733Z,4.18
2022-12-28T04:11:04.187Z,4.75
2022-12-28T04:13:49.551Z,5.22
2022-12-28T04:16:36.649Z,4.00
2022-12-28T04:19:24.221Z,3.92
2022-12-28T04:22:10.095Z,4.30
2022-12-28T04:24:56.572Z,4.50
2022-12-28T04:27:41.931Z,4.88
2022-12-28T04:30:39.359Z,4.20
2022-12-28T04:33:27.339Z,4.30
2022-12-28T04:36:15.426Z,4.53
2022-12-28T04:39:02.315Z,4.15
2022-12-28T04:41:47.835Z,4.05
2022-12-28T04:44:33.459Z,4.40
2022-12-28T04:47:19.443Z,4.18
2022-12-28T04:50:05.383Z,4.15
2022-12-28T04:52:51.073Z,4.18
2022-12-28T04:55:36.610Z,4.25
2022-12-28T04:58:21.899Z,4.57
2022-12-28T05:01:11.157Z,4.38
2022-12-28T05:03:59.483Z,3.65
2022-12-28T05:06:45.238Z,3.20
2022-12-28T05:09:30.507Z,3.75
2022-12-28T05:12:16.023Z,3.13
2022-12-28T05:15:01.332Z,3.63
2022-12-28T05:17:46.790Z,3.05
2022-12-28T05:20:32.119Z,3.47
2022-12-28T05:23:17.770Z,3.58
2022-12-28T05:26:04.523Z,3.83
2022-12-28T05:28:50.184Z,4.00
2022-12-28T05:31:35.574Z,3.80
2022-12-28T05:34:20.882Z,4.28
2022-12-28T05:37:06.198Z,3.03
2022-12-28T05:39:51.691Z,3.30
2022-12-28T05:42:37.041Z,3.75
2022-12-28T05:45:22.736Z,3.95
2022-12-28T05:48:08.099Z,5.30
2022-12-28T05:50:56.893Z,6.35
2022-12-28T05:53:42.905Z,5.80
2022-12-28T05:56:29.896Z,5.38
2022-12-28T05:59:15.029Z,5.25
2022-12-28T06:02:00.702Z,5.93
2022-12-28T06:04:46.198Z,9.02
2022-12-28T06:07:31.613Z,11.73
2022-12-28T06:10:16.900Z,12.02
2022-12-28T06:13:02.279Z,12.20
2022-12-28T06:15:47.693Z,8.32
2022-12-28T06:18:34.126Z,11.10
2022-12-28T06:21:21.125Z,12.77
2022-12-28T06:24:08.455Z,11.23
2022-12-28T06:26:53.824Z,13.93
2022-12-28T06:29:39.179Z,18.98
2022-12-28T06:32:24.860Z,22.58
2022-12-28T06:38:37.011Z,23.20
2022-12-28T06:41:23.682Z,22.30
2022-12-28T06:44:12.543Z,22.20
2022-12-28T06:46:58.062Z,20.02
2022-12-28T06:49:43.468Z,13.23
2022-12-28T06:52:28.845Z,7.90
2022-12-28T06:55:14.288Z,4.28
2022-12-28T06:58:00.061Z,4.13
2022-12-28T07:00:45.416Z,4.20
2022-12-28T07:03:31.348Z,4.85
2022-12-28T07:06:18.753Z,3.88
2022-12-28T07:09:07.647Z,4.65
2022-12-28T07:11:53.118Z,4.43
2022-12-28T07:14:38.522Z,4.50
2022-12-28T07:17:23.945Z,3.80
2022-12-28T07:20:10.036Z,4.22
2022-12-28T07:22:55.357Z,4.30
2022-12-28T07:25:40.926Z,3.58
2022-12-28T07:28:26.692Z,4.18
2022-12-28T07:31:15.126Z,4.80
2022-12-28T07:34:01.161Z,5.63
2022-12-28T07:36:46.528Z,4.47
2022-12-28T07:39:31.840Z,5.97
2022-12-28T07:42:17.297Z,5.22
2022-12-28T07:45:02.908Z,4.75
2022-12-28T07:47:48.638Z,4.53
2022-12-28T07:50:37.786Z,3.67
2022-12-28T07:53:23.710Z,3.67
2022-12-28T07:56:10.111Z,4.28
2022-12-28T07:59:00.976Z,4.32
2022-12-28T08:01:49.423Z,6.82
2022-12-28T08:04:35.498Z,6.00
2022-12-28T08:07:21.226Z,5.28
2022-12-28T08:10:07.383Z,5.07
2022-12-28T08:12:52.742Z,4.20
2022-12-28T08:15:38.145Z,6.07
2022-12-28T08:18:23.545Z,7.22
2022-12-28T08:21:14.848Z,6.22
2022-12-28T08:24:01.522Z,6.00
2022-12-28T08:26:48.757Z,4.85
2022-12-28T08:29:34.105Z,4.60
2022-12-28T08:32:19.883Z,5.93
2022-12-28T08:35:05.799Z,6.38
2022-12-28T08:37:51.322Z,6.65
2022-12-28T08:40:36.795Z,7.60
2022-12-28T08:43:22.686Z,6.40
2022-12-28T08:46:12.860Z,6.97
2022-12-28T08:49:00.603Z,4.72
2022-12-28T08:51:46.317Z,4.80
2022-12-28T08:54:31.809Z,8.88
2022-12-28T08:57:17.390Z,7.78
2022-12-28T09:00:06.750Z,6.22
2022-12-28T09:02:52.123Z,5.93
2022-12-28T09:05:39.742Z,5.68
2022-12-28T09:08:25.552Z,3.63
2022-12-28T09:11:13.630Z,2.92
2022-12-28T09:13:59.145Z,2.50
2022-12-28T09:16:45.194Z,2.92
2022-12-28T09:19:30.650Z,2.63
2022-12-28T09:22:16.326Z,3.13
2022-12-28T09:25:01.751Z,2.85
2022-12-28T09:27:53.381Z,2.70
2022-12-28T09:30:41.375Z,2.60
2022-12-28T09:34:15.342Z,1.95
2022-12-28T09:36:51.336Z,2.30
2022-12-28T09:39:36.670Z,2.42
2022-12-28T09:42:27.091Z,2.50
2022-12-28T09:45:13.180Z,2.63
2022-12-28T09:48:07.202Z,2.38
2022-12-28T09:50:53.265Z,2.80
2022-12-28T09:53:39.002Z,2.42
2022-12-28T09:56:30.689Z,2.40
2022-12-28T09:59:23.280Z,2.70
2022-12-28T10:02:26.204Z,3.13
2022-12-28T10:05:12.098Z,3.90
2022-12-28T10:07:59.514Z,3.08
2022-12-28T10:10:48.607Z,2.95
2022-12-28T10:13:55.074Z,3.22
2022-12-28T10:16:46.921Z,3.50
2022-12-28T10:19:34.296Z,3.08
2022-12-28T10:22:22.560Z,3.03
2022-12-28T10:25:16.946Z,2.92
2022-12-28T10:28:07.883Z,2.33
2022-12-28T10:31:06.752Z,2.17
2022-12-28T10:33:52.345Z,2.30
2022-12-28T10:36:38.145Z,2.40
2022-12-28T10:39:27.261Z,2.38
2022-12-28T10:42:37.725Z,2.70
2022-12-28T10:45:32.698Z,2.90
2022-12-28T10:48:21.813Z,2.05
2022-12-28T10:51:16.687Z,3.00
2022-12-28T10:54:03.264Z,2.60
2022-12-28T10:56:49.859Z,3.13
2022-12-28T10:59:35.276Z,2.60
2022-12-28T11:02:29.169Z,2.78
2022-12-28T11:05:25.703Z,2.28
2022-12-28T11:08:14.701Z,2.47
2022-12-28T11:10:59.927Z,2.47
2022-12-28T11:13:48.978Z,3.00
2022-12-28T11:16:37.633Z,3.75
2022-12-28T11:19:25.516Z,3.05
2022-12-28T11:22:13.374Z,4.90
2022-12-28T11:25:00.573Z,4.10
2022-12-28T11:27:47.937Z,3.80
2022-12-28T11:30:33.311Z,3.03
2022-12-28T11:33:42.257Z,2.70
2022-12-28T11:36:28.758Z,2.92
2022-12-28T11:39:27.001Z,2.30
2022-12-28T11:42:41.070Z,2.50
2022-12-28T11:45:53.981Z,1.88
2022-12-28T11:48:42.336Z,1.77
2022-12-28T11:51:37.289Z,2.03
2022-12-28T11:54:50.195Z,2.55
2022-12-28T11:57:45.031Z,2.40
2022-12-28T12:00:40.207Z,2.63
2022-12-28T12:03:57.040Z,2.10
2022-12-28T12:06:43.034Z,2.17
2022-12-28T12:09:43.643Z,2.63
2022-12-28T12:12:29.253Z,2.40
2022-12-28T12:15:40.694Z,2.90
2022-12-28T12:18:29.129Z,1.30
2022-12-28T12:21:36.312Z,1.90
2022-12-28T12:24:29.439Z,1.55
2022-12-28T12:27:20.678Z,2.50
2022-12-28T12:30:13.987Z,2.20
2022-12-28T12:33:04.586Z,2.50
2022-12-28T12:36:16.388Z,1.80
2022-12-28T12:39:16.738Z,2.67
2022-12-28T12:42:21.622Z,2.97
2022-12-28T12:45:12.934Z,3.83
2022-12-28T12:48:01.598Z,3.95
2022-12-28T12:51:08.838Z,4.03
2022-12-28T12:54:26.481Z,3.40
2022-12-28T12:57:35.139Z,2.45
2022-12-28T13:00:22.653Z,2.17
2022-12-28T13:03:27.294Z,2.40
2022-12-28T13:06:16.436Z,2.50
2022-12-28T13:09:06.476Z,2.25
2022-12-28T13:11:52.521Z,2.72
2022-12-28T13:14:38.322Z,2.75
2022-12-28T13:17:24.609Z,2.92
2022-12-28T13:20:21.469Z,3.58
2022-12-28T13:23:16.343Z,2.95
2022-12-28T13:26:02.863Z,4.30
2022-12-28T13:28:53.948Z,3.97
2022-12-28T13:31:41.060Z,5.75
2022-12-28T13:34:35.294Z,6.97
2022-12-28T13:37:21.868Z,4.95
2022-12-28T13:40:12.083Z,3.47
2022-12-28T13:43:05.004Z,3.42
2022-12-28T13:46:02.241Z,2.97
2022-12-28T13:48:52.686Z,3.58
2022-12-28T13:51:40.524Z,3.67
2022-12-28T13:54:26.312Z,4.38
2022-12-28T14:00:23.383Z,4.60
2022-12-28T14:03:11.163Z,9.63
2022-12-28T14:06:02.241Z,10.75
2022-12-28T14:08:48.207Z,6.63
2022-12-28T14:11:33.866Z,4.82
2022-12-28T14:14:19.399Z,4.15
2022-12-28T14:17:07.544Z,3.50
2022-12-28T14:19:56.000Z,4.35
2022-12-28T14:22:41.825Z,3.50
2022-12-28T14:25:27.480Z,2.55
2022-12-28T14:28:18.818Z,2.95
2022-12-28T14:31:06.781Z,2.42
2022-12-28T14:33:56.169Z,3.70
2022-12-28T14:36:47.841Z,3.47
2022-12-28T14:39:34.779Z,2.92
2022-12-28T14:42:24.579Z,2.65
2022-12-28T14:46:06.717Z,2.90
2022-12-28T14:48:47.260Z,2.25
2022-12-28T14:51:35.163Z,2.60
2022-12-28T14:54:25.829Z,3.92
2022-12-28T14:57:33.014Z,3.30
2022-12-28T15:00:31.732Z,3.28
2022-12-28T15:03:20.270Z,3.95
2022-12-28T15:06:05.476Z,4.35
2022-12-28T15:08:52.847Z,6.97
2022-12-28T15:11:38.305Z,4.60
2022-12-28T15:14:25.463Z,4.57
2022-12-28T15:17:12.241Z,4.88
2022-12-28T15:19:57.759Z,4.72
2022-12-28T15:22:43.517Z,4.80
2022-12-28T15:25:28.925Z,5.10
2022-12-28T15:28:14.738Z,7.85
2022-12-28T15:31:13.527Z,5.20
2022-12-28T15:34:05.489Z,4.03
2022-12-28T15:36:52.218Z,4.75
2022-12-28T15:39:37.775Z,4.57
2022-12-28T15:42:23.200Z,5.13
2022-12-28T15:45:09.209Z,6.85
2022-12-28T15:47:55.443Z,6.88
2022-12-28T15:50:41.089Z,7.43
2022-12-28T15:53:26.518Z,7.05
2022-12-28T15:56:22.063Z,9.13
2022-12-28T15:59:12.899Z,10.57
2022-12-28T16:01:58.601Z,13.70
2022-12-28T16:04:44.372Z,14.25
2022-12-28T16:07:29.816Z,14.85
2022-12-28T16:10:17.837Z,12.68
2022-12-28T16:13:06.776Z,14.20
2022-12-28T16:15:52.185Z,17.75
2022-12-28T16:18:38.023Z,21.00
2022-12-28T16:21:25.207Z,15.15
2022-12-28T16:24:11.552Z,31.38
2022-12-28T16:26:57.273Z,13.38
2022-12-28T16:29:42.850Z,17.63
2022-12-28T16:32:29.943Z,19.65
2022-12-28T16:35:15.617Z,6.10
2022-12-28T16:38:01.163Z,6.90
2022-12-28T16:40:47.505Z,7.22
2022-12-28T16:43:32.890Z,9.00
2022-12-28T16:46:18.761Z,8.55
2022-12-28T16:49:04.888Z,8.75
2022-12-28T16:51:50.280Z,6.85
2022-12-28T16:54:46.093Z,12.60
2022-12-28T16:57:33.198Z,14.45
2022-12-28T17:00:18.766Z,25.52
2022-12-28T17:03:04.150Z,15.05
2022-12-28T17:05:51.203Z,8.70
2022-12-28T17:08:36.893Z,8.23
2022-12-28T17:11:22.232Z,11.88
2022-12-28T17:14:11.104Z,9.80
2022-12-28T17:16:56.947Z,8.98
2022-12-28T17:19:42.331Z,8.02
2022-12-28T17:22:27.845Z,7.00
2022-12-28T17:25:14.562Z,7.70
2022-12-28T17:28:00.485Z,7.10
2022-12-28T17:30:46.391Z,15.27
2022-12-28T17:33:38.710Z,18.45
2022-12-28T17:36:25.316Z,38.97
2022-12-28T17:39:12.643Z,101.80
2022-12-28T17:41:58.763Z,72.35
2022-12-28T17:44:46.054Z,115.20
2022-12-28T17:47:31.696Z,34.58
2022-12-28T17:50:18.230Z,23.00
2022-12-28T17:53:03.826Z,25.00
2022-12-28T17:55:49.626Z,22.15
2022-12-28T17:58:35.472Z,80.88
2022-12-28T18:01:21.260Z,81.22
2022-12-28T18:04:08.324Z,43.58
2022-12-28T18:06:53.606Z,35.15
2022-12-28T18:09:39.471Z,36.78
2022-12-28T18:12:24.967Z,29.33
2022-12-28T18:15:10.744Z,13.85
2022-12-28T18:17:56.408Z,7.55
2022-12-28T18:20:42.073Z,11.00
2022-12-28T18:23:28.497Z,9.18
2022-12-28T18:26:16.971Z,9.40
2022-12-28T18:29:02.406Z,5.40
2022-12-28T18:31:47.835Z,8.15
2022-12-28T18:34:33.416Z,7.05
2022-12-28T18:37:19.008Z,7.90
2022-12-28T18:40:04.962Z,13.18
2022-12-28T18:42:50.361Z,5.35
2022-12-28T18:45:35.821Z,12.98
2022-12-28T18:48:21.271Z,5.88
2022-12-28T18:51:08.305Z,5.05
2022-12-28T18:53:53.685Z,3.10
2022-12-28T18:56:39.033Z,3.00
2022-12-28T18:59:24.951Z,11.23
2022-12-28T19:02:17.474Z,6.07
2022-12-28T19:05:05.243Z,4.32
2022-12-28T19:07:50.770Z,3.83
2022-12-28T19:10:37.408Z,5.53
2022-12-28T19:13:22.854Z,5.10
2022-12-28T19:16:12.865Z,5.28
2022-12-28T19:18:59.084Z,5.28
2022-12-28T19:21:45.402Z,5.80
2022-12-28T19:24:31.546Z,4.95
2022-12-28T19:27:17.673Z,10.07
2022-12-28T19:30:03.587Z,6.38
2022-12-28T19:32:49.191Z,5.20
2022-12-28T19:35:34.846Z,4.15
2022-12-28T19:38:20.181Z,3.60
2022-12-28T19:41:08.027Z,3.17
2022-12-28T19:43:53.887Z,3.00
2022-12-28T19:46:39.396Z,2.88
2022-12-28T19:49:24.850Z,2.70
2022-12-28T19:52:13.623Z,2.90
2022-12-28T19:55:03.757Z,3.15
2022-12-28T19:57:49.485Z,3.22
2022-12-28T20:00:35.014Z,2.88
2022-12-28T20:03:21.075Z,4.13
2022-12-28T20:06:18.730Z,7.72
2022-12-28T20:09:05.046Z,9.63
2022-12-28T20:11:50.472Z,5.95
2022-12-28T20:14:35.861Z,5.90
2022-12-28T20:17:21.119Z,5.63
2022-12-28T20:20:06.799Z,6.90
2022-12-28T20:22:53.928Z,6.80
2022-12-28T20:25:39.273Z,5.30
2022-12-28T20:28:24.949Z,6.20
2022-12-28T20:31:13.531Z,8.82
2022-12-28T20:33:59.597Z,7.97
2022-12-28T20:36:45.197Z,11.80
2022-12-28T20:39:30.633Z,8.63
2022-12-28T20:42:34.937Z,7.15
2022-12-28T20:45:20.706Z,7.82
2022-12-28T20:48:06.323Z,5.90
2022-12-28T20:51:00.211Z,4.70
2022-12-28T20:53:46.021Z,6.80
2022-12-28T20:56:32.240Z,5.38
2022-12-28T20:59:17.834Z,8.75
2022-12-28T21:02:03.376Z,4.90
2022-12-28T21:04:49.079Z,5.13
2022-12-28T21:07:34.429Z,7.75
2022-12-28T21:10:19.851Z,4.28
2022-12-28T21:13:05.306Z,4.60
2022-12-28T21:15:51.132Z,5.63
2022-12-28T21:18:37.512Z,4.53
2022-12-28T21:21:23.199Z,4.70
2022-12-28T21:24:09.244Z,5.68
2022-12-28T21:26:55.015Z,5.57
2022-12-28T21:29:41.552Z,6.95
2022-12-28T21:32:27.504Z,8.23
2022-12-28T21:35:12.771Z,4.78
2022-12-28T21:37:58.430Z,3.75
2022-12-28T21:40:57.827Z,3.28
2022-12-28T21:43:43.743Z,3.58
2022-12-28T21:46:29.364Z,3.63
2022-12-28T21:49:15.108Z,3.30
2022-12-28T21:52:01.918Z,3.00
2022-12-28T21:54:47.608Z,3.50
2022-12-28T21:57:32.685Z,2.85
2022-12-28T22:00:37.175Z,3.05
2022-12-28T22:03:40.998Z,3.00
2022-12-28T22:06:26.437Z,2.90
2022-12-28T22:09:31.080Z,2.58
2022-12-28T22:12:39.709Z,3.17
2022-12-28T22:15:45.343Z,3.00
2022-12-28T22:21:37.694Z,2.63
2022-12-28T22:24:24.432Z,2.72
2022-12-28T22:27:19.049Z,2.40
2022-12-28T22:30:05.559Z,2.13
2022-12-28T22:32:51.335Z,2.60
2022-12-28T22:35:36.894Z,3.13
2022-12-28T22:38:23.608Z,2.83
2022-12-28T22:41:10.263Z,2.88
2022-12-28T22:43:56.021Z,3.83
2022-12-28T22:46:42.396Z,2.55
2022-12-28T22:49:28.168Z,2.22
2022-12-28T22:52:13.798Z,2.55
2022-12-28T22:54:59.720Z,2.67
2022-12-28T22:57:45.736Z,2.33
2022-12-28T23:00:31.191Z,1.95
2022-12-28T23:03:16.815Z,2.20
2022-12-28T23:06:03.365Z,3.10
2022-12-28T23:08:48.821Z,2.63
2022-12-28T23:11:36.962Z,2.53
2022-12-28T23:14:43.429Z,2.80
2022-12-28T23:17:29.621Z,2.78
2022-12-28T23:20:34.453Z,2.58
2022-12-28T23:23:38.381Z,1.70
2022-12-28T23:26:42.441Z,2.20
2022-12-28T23:29:30.745Z,1.65
2022-12-28T23:32:16.476Z,1.35
2022-12-28T23:35:02.419Z,1.95
2022-12-28T23:37:48.303Z,1.95
2022-12-28T23:40:33.790Z,1.70
2022-12-28T23:43:19.116Z,1.83
2022-12-28T23:46:05.364Z,1.75
2022-12-28T23:48:50.961Z,1.95
2022-12-28T23:51:36.934Z,2.25
2022-12-28T23:54:22.504Z,1.60
2022-12-28T23:57:07.972Z,1.60
2022-12-28T23:59:53.364Z,1.83
